Time;durP1;ratioP1;P1;durP2;ratioP2;P2;SDS_P1;SDS_P2;PMS_P1;PMS_P2;Temp;Humidity;BMP_temperature;BMP_pressure;BME280_temperature;BME280_humidity;BME280_pressure;Samples;Min_cycle;Max_cycle;Signal;HPM_P1;HPM_P2
2022/05/23 00:02:18;;;;;;;1.65;1.40;;;;;;;14.84;51.58;99805.86;2018603;96;25716;-79
2022/05/23 00:09:34;;;;;;;1.55;1.27;;;;;;;14.80;51.69;99806.76;1971521;98;25863;-78
2022/05/23 00:13:13;;;;;;;1.47;1.30;;;;;;;14.78;51.70;99812.44;1972428;98;25777;-79
2022/05/23 00:16:50;;;;;;;2.60;1.57;;;;;;;14.76;51.79;99819.45;1970177;98;25876;-79
2022/05/23 00:20:32;;;;;;;4.83;1.57;;;;;;;14.74;51.87;99815.95;1992871;97;25763;-79
2022/05/23 00:24:13;;;;;;;2.98;1.60;;;;;;;14.73;51.92;99818.16;1974788;99;25903;-80
2022/05/23 00:27:42;;;;;;;2.95;2.05;;;;;;;14.71;51.97;99818.58;1974544;98;25774;-80
2022/05/23 00:31:32;;;;;;;2.80;1.70;;;;;;;14.68;52.09;99821.20;1960513;96;25815;-81
2022/05/23 00:39:17;;;;;;;;;;;;;;;;;;;;;
2022/05/23 00:47:03;;;;;;;;;;;;;;;14.57;52.43;99831.72;2057088;96;25798;-82
2022/05/23 00:50:35;;;;;;;2.35;1.57;;;;;;;14.53;52.54;99835.23;1962955;99;25771;-82
2022/05/23 00:54:20;;;;;;;3.02;1.37;;;;;;;14.48;52.60;99828.66;1962470;99;25822;-78
2022/05/23 00:58:25;;;;;;;1.95;1.50;;;;;;;14.46;52.70;99824.28;1944594;99;25895;-80
2022/05/23 01:01:55;;;;;;;2.25;1.40;;;;;;;14.43;52.79;99826.47;1932181;100;25912;-78
2022/05/23 01:09:07;;;;;;;2.58;1.32;;;;;;;14.38;53.02;99835.66;1855205;105;26442;-78
2022/05/23 01:12:38;;;;;;;1.80;1.37;;;;;;;14.37;53.10;99825.16;1856009;105;25823;-81
2022/05/23 01:16:12;;;;;;;2.77;1.57;;;;;;;14.35;53.14;99822.98;1831018;106;25800;-81
2022/05/23 01:19:46;;;;;;;;;;;;;;;;;;;;;
2022/05/23 01:23:23;;;;;;;2.45;1.50;;;;;;;14.33;53.30;99837.84;1816119;107;25852;-79
2022/05/23 01:27:09;;;;;;;3.65;1.65;;;;;;;14.31;53.32;99828.67;1862032;103;25893;-79
2022/05/23 01:30:40;;;;;;;2.35;1.60;;;;;;;14.30;53.41;99841.33;1938045;99;25782;-80
2022/05/23 01:34:22;;;;;;;2.12;1.40;;;;;;;14.28;53.46;99843.09;1980755;97;25817;-80
2022/05/23 01:38:05;;;;;;;1.92;1.27;;;;;;;14.27;53.50;99848.31;1979259;99;25751;-79
2022/05/23 01:42:00;;;;;;;1.77;1.20;;;;;;;14.25;53.58;99844.84;1979779;98;26357;-79
2022/05/23 01:45:45;;;;;;;;;;;;;;;;;;;;;
2022/05/23 01:49:34;;;;;;;;;;;;;;;;;;;;;
2022/05/23 01:53:10;;;;;;;4.60;1.60;;;;;;;14.21;53.97;99845.28;2061645;91;25843;-80
2022/05/23 01:56:53;;;;;;;2.02;1.32;;;;;;;14.22;54.08;99852.70;2065781;94;25719;-81
2022/05/23 02:04:31;;;;;;;1.67;1.25;;;;;;;14.22;54.22;99847.46;1960817;98;25782;-82
2022/05/23 02:08:20;;;;;;;1.65;1.27;;;;;;;14.17;54.32;99845.72;1974359;100;29785;-81
2022/05/23 02:15:34;;;;;;;2.33;1.50;;;;;;;14.13;54.48;99849.19;1854363;103;25939;-78
2022/05/23 02:19:25;;;;;;;2.08;1.65;;;;;;;14.13;54.59;99845.25;1872767;104;25689;-78
2022/05/23 02:23:10;;;;;;;2.30;1.22;;;;;;;14.12;54.68;99848.76;1880613;102;25890;-79
2022/05/23 02:26:27;;;;;;;5.67;1.92;;;;;;;14.09;54.78;99847.44;1880641;103;26567;-79
2022/05/23 02:33:42;;;;;;;4.95;1.60;;;;;;;14.06;54.97;99847.44;1869542;104;26028;-80
2022/05/23 02:37:42;;;;;;;2.58;1.52;;;;;;;14.06;55.03;99851.38;1816002;106;25994;-81
2022/05/23 02:41:58;;;;;;;1.95;1.55;;;;;;;14.06;55.10;99848.75;1766407;110;26013;-81
2022/05/23 02:45:58;;;;;;;2.25;1.62;;;;;;;14.06;55.18;99853.98;1828885;104;25797;-79
2022/05/23 02:49:49;;;;;;;2.60;1.42;;;;;;;14.04;55.20;99853.13;1827132;105;26029;-80
2022/05/23 02:53:36;;;;;;;3.70;1.87;;;;;;;14.03;55.23;99855.73;1819197;107;25865;-80
2022/05/23 02:57:25;;;;;;;5.85;1.62;;;;;;;14.02;55.28;99848.31;1796968;108;25877;-80
2022/05/23 03:00:51;;;;;;;2.60;1.60;;;;;;;14.02;55.33;99852.69;1810688;105;25795;-78
2022/05/23 03:04:37;;;;;;;2.12;1.82;;;;;;;14.01;55.42;99850.51;1810260;106;25987;-80
2022/05/23 03:08:23;;;;;;;3.15;1.50;;;;;;;14.01;55.43;99841.34;1811905;107;25810;-81
2022/05/23 03:12:05;;;;;;;3.15;1.85;;;;;;;14.01;55.44;99845.70;1819722;108;26067;-81
2022/05/23 03:15:53;;;;;;;3.17;1.75;;;;;;;14.02;55.51;99846.13;1824213;107;25842;-79
2022/05/23 03:19:26;;;;;;;2.98;1.60;;;;;;;14.00;55.56;99848.73;1839206;105;25882;-80
2022/05/23 03:27:39;;;;;;;3.22;1.75;;;;;;;13.99;55.62;99839.13;1866151;104;26123;-79
2022/05/23 03:31:07;;;;;;;4.08;1.30;;;;;;;14.01;55.57;99843.95;1926220;98;25389;-80
2022/05/23 03:35:01;;;;;;;4.60;1.50;;;;;;;14.02;55.58;99847.00;1977675;99;25786;-80
2022/05/23 03:38:38;;;;;;;3.67;1.42;;;;;;;14.05;55.58;99846.14;2055233;95;25735;-80
2022/05/23 03:42:32;;;;;;;7.40;1.80;;;;;;;14.06;55.56;99850.06;2025524;96;25983;-80
2022/05/23 03:46:20;;;;;;;;;;;;;;;;;;;;;
2022/05/23 03:49:51;;;;;;;;;;;;;;;;;;;;;
2022/05/23 03:57:06;;;;;;;5.22;1.75;;;;;;;14.15;55.40;99842.65;2075898;93;25801;-80
2022/05/23 04:00:48;;;;;;;3.57;1.63;;;;;;;14.18;55.35;99839.59;2076612;94;25944;-79
2022/05/23 04:08:23;;;;;;;2.65;1.55;;;;;;;14.22;55.31;99840.91;2015983;95;25906;-79
2022/05/23 04:11:49;;;;;;;3.15;1.52;;;;;;;14.23;55.25;99848.76;2014468;96;25960;-80
2022/05/23 04:15:42;;;;;;;3.33;1.90;;;;;;;14.26;55.22;99855.31;2015792;96;25676;-80
2022/05/23 04:19:22;;;;;;;2.60;1.87;;;;;;;14.29;55.23;99857.07;2048909;95;25725;-78
2022/05/23 04:23:03;;;;;;;3.33;1.87;;;;;;;14.30;55.26;99854.88;2064768;93;25919;-79
2022/05/23 04:26:32;;;;;;;2.27;2.05;;;;;;;14.32;55.27;99863.19;2104079;92;25784;-78
2022/05/23 04:37:33;;;;;;;3.47;1.80;;;;;;;14.44;55.10;99860.98;2006744;94;25990;-80
2022/05/23 04:45:25;;;;;;;;;;;;;;;;;;;;;
2022/05/23 04:53:07;;;;;;;7.78;1.65;;;;;;;14.77;54.51;99864.48;2088981;93;25942;-81
2022/05/23 04:56:34;;;;;;;4.95;1.70;;;;;;;14.90;54.26;99861.41;2072408;93;25785;-76
2022/05/23 05:00:12;;;;;;;3.35;1.57;;;;;;;14.98;54.13;99868.81;2090473;93;25799;-80
2022/05/23 05:04:04;;;;;;;1.95;1.57;;;;;;;15.06;53.96;99861.36;2093346;93;25698;-78
2022/05/23 05:07:34;;;;;;;4.65;1.50;;;;;;;15.16;53.71;99860.90;2104393;92;25786;-80
2022/05/23 05:11:11;;;;;;;2.17;1.30;;;;;;;15.19;53.60;99861.34;2044101;92;26111;-81
2022/05/23 05:15:03;;;;;;;4.85;2.08;;;;;;;15.25;53.56;99858.66;2087500;93;26011;-80
2022/05/23 05:18:43;;;;;;;4.08;2.33;;;;;;;15.39;53.41;99857.29;2121252;91;25733;-79
2022/05/23 05:22:37;;;;;;;3.07;2.00;;;;;;;15.50;53.18;99855.51;2125958;92;25927;-80
2022/05/23 05:26:41;;;;;;;3.83;1.98;;;;;;;15.62;52.93;99863.31;2127083;92;25950;-81
2022/05/23 05:30:28;;;;;;;3.10;1.90;;;;;;;15.82;52.65;99865.86;2126542;91;25795;-85
2022/05/23 05:34:22;;;;;;;3.75;1.62;;;;;;;16.03;52.41;99859.58;2127829;92;26352;-82
2022/05/23 05:38:13;;;;;;;5.33;1.87;;;;;;;16.23;52.19;99870.86;2095415;93;25855;-80
2022/05/23 05:41:56;;;;;;;2.20;1.82;;;;;;;16.34;51.78;99864.20;2072158;93;25852;-80
2022/05/23 05:45:44;;;;;;;6.85;3.22;;;;;;;16.61;51.76;99860.89;2082231;93;25784;-79
2022/05/23 05:49:24;;;;;;;4.03;1.80;;;;;;;16.84;51.19;99864.21;2000457;97;25903;-79
2022/05/23 05:52:54;;;;;;;4.55;1.70;;;;;;;17.02;50.80;99863.58;1972077;99;25943;-78
2022/05/23 06:01:00;;;;;;;8.63;1.55;;;;;;;17.32;49.56;99867.62;1950626;100;25975;-76
2022/05/23 06:05:09;;;;;;;;;;;;;;;;;;;;;
2022/05/23 06:12:31;;;;;;;4.20;1.22;;;;;;;18.74;49.36;99884.48;1825876;103;26502;-78
2022/05/23 06:16:00;;;;;;;2.87;0.95;;;;;;;19.48;48.53;99881.29;1879226;105;25919;-79
2022/05/23 06:24:11;;;;;;;3.87;1.22;;;;;;;20.42;46.86;99881.39;1821019;107;25862;-79
2022/05/23 06:28:22;;;;;;;;;;;;;;;;;;;;;
2022/05/23 06:31:46;;;;;;;1.40;1.00;;;;;;;21.55;44.71;99878.83;1841218;106;25865;-79
2022/05/23 06:35:17;;;;;;;2.12;1.00;;;;;;;21.85;44.08;99881.88;1823484;107;26192;-80
2022/05/23 06:39:08;;;;;;;4.00;1.37;;;;;;;22.28;43.43;99887.21;1887224;104;26520;-80
2022/05/23 06:43:27;;;;;;;6.47;1.02;;;;;;;22.68;42.51;99895.19;1865250;103;25857;-80
2022/05/23 06:47:05;;;;;;;6.03;0.95;;;;;;;23.09;41.69;99898.23;1808419;108;25917;-81
2022/05/23 06:51:18;;;;;;;;;;;;;;;;;;;;;
2022/05/23 06:54:57;;;;;;;;;;;;;;;23.68;40.22;99904.96;1818422;107;25862;-82
2022/05/23 06:59:09;;;;;;;;;;;;;;;;;;;;;
2022/05/23 07:12:27;;;;;;;1.60;1.07;;;;;;;25.06;37.69;99906.89;1779740;107;26679;-81
2022/05/23 07:16:05;;;;;;;1.40;1.30;;;;;;;25.55;37.35;99907.85;1733074;112;25970;-79
2022/05/23 07:20:03;;;;;;;1.67;1.15;;;;;;;26.10;36.71;99918.67;1783431;110;25977;-79
2022/05/23 07:24:00;;;;;;;2.52;1.47;;;;;;;26.33;36.17;99911.75;1811783;106;25864;-78
2022/05/23 07:27:38;;;;;;;6.75;1.55;;;;;;;26.74;35.49;99918.20;1840192;106;25872;-79
2022/05/23 07:31:26;;;;;;;2.90;1.62;;;;;;;27.09;34.78;99927.09;1813329;107;26550;-79
2022/05/23 07:35:00;;;;;;;4.12;1.60;;;;;;;27.42;34.22;99930.31;1789804;107;26534;-79
2022/05/23 07:38:25;;;;;;;3.40;1.72;;;;;;;27.80;33.87;99931.89;1869436;101;25791;-74
2022/05/23 07:41:48;;;;;;;3.70;1.62;;;;;;;28.04;32.45;99933.20;1946080;100;25848;-73
2022/05/23 07:45:16;;;;;;;4.17;1.82;;;;;;;27.80;31.68;99927.40;1957166;100;26009;-75
2022/05/23 07:48:46;;;;;;;2.22;1.98;;;;;;;27.87;31.32;99928.78;1956682;99;25876;-75
2022/05/23 07:52:08;;;;;;;9.83;1.35;;;;;;;28.07;30.88;99931.70;1949130;101;25759;-74
2022/05/23 08:03:01;;;;;;;2.15;1.37;;;;;;;28.50;29.76;99920.39;1971345;98;25848;-74
2022/05/23 08:06:28;;;;;;;2.70;1.10;;;;;;;28.71;29.58;99922.66;1990631;96;25805;-75
2022/05/23 08:09:49;;;;;;;3.30;1.45;;;;;;;28.99;29.09;99926.42;1957407;99;25816;-76
2022/05/23 08:13:14;;;;;;;2.90;1.32;;;;;;;29.20;28.68;99923.42;2004173;96;25893;-76
2022/05/23 08:16:46;;;;;;;2.37;1.30;;;;;;;29.30;28.38;99924.11;2044629;95;25757;-75
2022/05/23 08:20:10;;;;;;;2.77;1.10;;;;;;;29.33;27.75;99926.61;2093209;89;25722;-75
2022/05/23 08:23:42;;;;;;;4.25;1.20;;;;;;;29.44;27.63;99932.65;2244713;88;25685;-75
2022/05/23 08:27:05;;;;;;;3.98;1.07;;;;;;;29.61;27.49;99923.58;2204579;89;25779;-75
2022/05/23 08:30:45;;;;;;;4.55;1.12;;;;;;;29.80;27.28;99919.23;2267617;83;25763;-76
2022/05/23 08:34:18;;;;;;;3.47;1.20;;;;;;;29.94;26.98;99916.55;2382251;82;25654;-77
2022/05/23 08:37:43;;;;;;;5.53;1.67;;;;;;;30.22;26.80;99916.13;2356913;82;26112;-75
2022/05/23 08:41:18;;;;;;;2.50;0.80;;;;;;;30.44;26.35;99915.56;2381971;82;25634;-75
2022/05/23 08:44:54;;;;;;;1.62;1.17;;;;;;;30.50;26.08;99911.13;2383237;82;25637;-79
2022/05/23 08:49:06;;;;;;;3.42;0.95;;;;;;;30.47;26.02;99914.02;2232184;87;25657;-79
2022/05/23 08:52:45;;;;;;;5.85;1.30;;;;;;;30.59;25.85;99915.41;2229122;88;25807;-76
2022/05/23 08:56:25;;;;;;;1.80;1.00;;;;;;;30.72;25.79;99913.25;2229677;86;25768;-76
2022/05/23 08:59:56;;;;;;;2.85;0.90;;;;;;;30.88;25.25;99921.16;2231720;87;25701;-77
2022/05/23 09:03:45;;;;;;;3.65;1.00;;;;;;;30.52;25.03;99912.75;2210478;88;25673;-75
2022/05/23 09:07:22;;;;;;;2.22;1.00;;;;;;;30.43;25.64;99912.02;2231787;88;26068;-73
2022/05/23 09:10:58;;;;;;;2.45;0.90;;;;;;;29.97;25.88;99908.28;2215042;89;25815;-75
2022/05/23 09:14:24;;;;;;;1.72;1.45;;;;;;;29.65;26.36;99907.64;2217131;87;25804;-77
2022/05/23 09:17:53;;;;;;;2.70;1.00;;;;;;;29.46;26.63;99912.40;2196505;89;26373;-74
2022/05/23 09:21:14;;;;;;;4.08;0.82;;;;;;;29.61;26.65;99898.05;2194598;86;25791;-80
2022/05/23 09:24:46;;;;;;;1.60;1.00;;;;;;;29.69;26.53;99908.30;2229567;85;25856;-74
2022/05/23 09:28:15;;;;;;;1.37;0.93;;;;;;;29.63;26.28;99905.52;2307539;83;25675;-74
2022/05/23 09:31:50;;;;;;;5.05;0.90;;;;;;;29.73;25.33;99901.29;2244039;86;25739;-78
2022/05/23 09:35:22;;;;;;;1.40;0.90;;;;;;;29.51;25.05;99890.16;2243819;87;25665;-80
2022/05/23 09:39:03;;;;;;;2.25;0.70;;;;;;;29.65;25.29;99891.52;2243804;88;26487;-80
2022/05/23 09:50:19;;;;;;;;;;;;;;;;;;;;;
2022/05/23 09:53:58;;;;;;;;;;;;;;;;;;;;;
2022/05/23 09:57:56;;;;;;;2.45;1.00;;;;;;;30.75;24.83;99875.37;2206116;88;25825;-86
2022/05/23 10:01:35;;;;;;;1.37;0.80;;;;;;;30.71;24.87;99874.72;2207183;89;25929;-81
2022/05/23 10:04:58;;;;;;;2.70;0.90;;;;;;;30.62;24.82;99867.27;2186683;89;26001;-79
2022/05/23 10:08:48;;;;;;;1.95;0.70;;;;;;;30.10;24.95;99868.01;2186703;88;25749;-82
2022/05/23 10:12:31;;;;;;;3.50;0.80;;;;;;;29.56;25.36;99873.26;2207307;88;26386;-82
2022/05/23 10:16:07;;;;;;;1.82;1.10;;;;;;;29.14;25.73;99865.59;2207093;88;26100;-81
2022/05/23 10:19:35;;;;;;;1.02;0.65;;;;;;;29.15;25.61;99864.14;2094152;93;25914;-84
2022/05/23 10:23:09;;;;;;;3.98;0.93;;;;;;;29.44;25.54;99862.83;2115934;92;25774;-77
2022/05/23 10:26:57;;;;;;;0.90;0.70;;;;;;;29.78;25.20;99858.88;2024815;93;26371;-82
2022/05/23 10:30:24;;;;;;;12.45;0.88;;;;;;;29.91;25.07;99860.30;2051894;94;26578;-75
2022/05/23 10:34:03;;;;;;;5.12;0.98;;;;;;;30.12;25.86;99859.38;2056078;96;25852;-89
2022/05/23 10:45:55;;;;;;;2.15;0.80;;;;;;;29.79;27.12;99852.53;2030569;96;25677;-90
2022/05/23 10:49:38;;;;;;;3.50;0.80;;;;;;;29.53;27.35;99850.63;2028762;95;25379;-87
2022/05/23 10:54:19;;;;;;;1.37;0.60;;;;;;;28.93;27.51;99843.11;2029209;96;25805;-92
2022/05/23 10:58:17;;;;;;;;;;;;;;;28.48;27.60;99837.34;2085833;92;25748;-86
2022/05/23 11:02:17;;;;;;;1.55;0.80;;;;;;;27.86;28.17;99836.47;2067491;95;25795;-90
2022/05/23 11:06:10;;;;;;;1.52;0.80;;;;;;;27.41;28.24;99832.70;2159474;89;25745;-93
2022/05/23 11:09:52;;;;;;;0.78;0.70;;;;;;;27.10;28.29;99831.66;2183830;89;25747;-93
2022/05/23 11:13:41;;;;;;;5.25;0.80;;;;;;;26.94;27.96;99822.71;2228073;82;25687;-86
2022/05/23 11:17:32;;;;;;;1.80;0.75;;;;;;;26.78;27.94;99830.66;2384268;82;25630;-93
2022/05/23 11:21:07;;;;;;;1.60;0.72;;;;;;;26.62;28.38;99821.22;2384898;83;25602;-93
2022/05/23 11:24:57;;;;;;;1.12;0.85;;;;;;;26.54;28.30;99818.09;2384490;83;25646;-90
2022/05/23 11:36:56;;;;;;;;;;;;;;;;;;;;;
2022/05/23 11:40:13;;;;;;;4.40;1.80;;;;;;;25.95;29.17;99808.08;2237547;87;25754;-73
2022/05/23 11:43:36;;;;;;;2.02;0.80;;;;;;;25.96;29.07;99812.97;2237358;88;25959;-74
2022/05/23 11:47:25;;;;;;;2.40;0.78;;;;;;;25.89;29.21;99809.73;2217150;88;25797;-94
2022/05/23 11:50:55;;;;;;;3.37;0.90;;;;;;;25.84;29.26;99805.94;2237811;88;25746;-90
2022/05/23 11:54:35;;;;;;;7.90;0.80;;;;;;;25.69;29.26;99805.33;2238461;86;25805;-93
2022/05/23 11:58:39;;;;;;;1.02;0.80;;;;;;;25.53;29.42;99803.84;2279749;85;26323;-92
2022/05/23 12:02:25;;;;;;;3.72;3.42;;;;;;;25.46;29.63;99798.88;2288043;86;25324;-80
2022/05/23 12:05:52;;;;;;;1.00;0.90;;;;;;;25.47;29.45;99800.59;2165985;87;34953;-73
2022/05/23 12:09:18;;;;;;;1.00;0.90;;;;;;;25.48;29.30;99795.65;2178648;87;25334;-95
2022/05/23 12:13:27;;;;;;;0.93;0.57;;;;;;;25.34;29.48;99791.82;2268822;87;25230;-95
2022/05/23 12:17:06;;;;;;;3.22;0.90;;;;;;;25.39;29.33;99788.48;2268643;87;25914;-94
2022/05/23 12:20:37;;;;;;;1.07;0.82;;;;;;;25.41;29.47;99784.39;2267966;86;25363;-91
2022/05/23 12:24:27;;;;;;;5.08;0.80;;;;;;;25.36;29.59;99781.09;2263792;86;25252;-81
2022/05/23 12:28:13;;;;;;;2.95;0.78;;;;;;;25.40;29.70;99780.00;2269377;87;25809;-93
2022/05/23 12:32:18;;;;;;;1.47;0.90;;;;;;;25.34;29.75;99779.81;2199496;89;25710;-83
2022/05/23 12:36:00;;;;;;;1.10;0.78;;;;;;;25.39;30.03;99775.14;2187030;89;25897;-79
2022/05/23 12:40:21;;;;;;;0.72;0.60;;;;;;;25.63;29.96;99770.91;2172703;88;25370;-89
2022/05/23 12:44:01;;;;;;;2.95;0.90;;;;;;;25.75;29.74;99772.99;2285020;85;25321;-94
2022/05/23 12:48:00;;;;;;;2.52;0.85;;;;;;;25.72;29.90;99765.58;2282311;85;25783;-93
2022/05/23 12:51:35;;;;;;;3.50;1.00;;;;;;;25.59;30.42;99762.19;2301745;85;25942;-89
2022/05/23 12:55:48;;;;;;;1.15;0.95;;;;;;;25.38;30.01;99758.75;2304585;85;25683;-87
2022/05/23 13:00:07;;;;;;;0.82;0.70;;;;;;;25.27;30.36;99747.69;2511219;78;25381;-86
2022/05/23 13:03:57;;;;;;;4.55;0.90;;;;;;;25.42;30.62;99751.45;2474174;80;25657;-89
2022/05/23 13:07:57;;;;;;;0.80;0.80;;;;;;;25.44;30.50;99749.09;2484228;79;25682;-89
2022/05/23 13:15:03;;;;;;;2.47;0.70;;;;;;;25.25;30.66;99743.39;2368697;83;26324;-88
2022/05/23 13:22:24;;;;;;;4.12;1.00;;;;;;;25.16;30.20;99742.87;2402870;82;25773;-82
2022/05/23 13:26:03;;;;;;;3.35;0.90;;;;;;;24.77;29.78;99735.33;2407486;82;25631;-86
2022/05/23 13:29:21;;;;;;;3.72;0.88;;;;;;;24.49;31.06;99732.56;2317561;84;26549;-91
2022/05/23 13:32:43;;;;;;;1.00;0.70;;;;;;;24.24;30.63;99728.75;2309334;84;25786;-90
2022/05/23 13:36:18;;;;;;;1.02;0.80;;;;;;;23.90;30.03;99721.33;2254770;84;25904;-89
2022/05/23 13:39:46;;;;;;;3.72;1.80;;;;;;;23.86;30.56;99722.36;2334925;83;25743;-73
2022/05/23 13:43:34;;;;;;;5.42;1.10;;;;;;;24.00;30.51;99726.20;2335261;84;25711;-86
2022/05/23 13:47:08;;;;;;;7.17;1.57;;;;;;;23.80;29.68;99723.50;2261114;86;25798;-87
2022/05/23 13:50:41;;;;;;;3.17;1.00;;;;;;;23.46;30.23;99716.00;2265857;87;25688;-73
2022/05/23 13:54:12;;;;;;;1.52;0.78;;;;;;;23.62;30.86;99713.56;2200449;89;25674;-81
2022/05/23 13:57:55;;;;;;;2.20;0.85;;;;;;;23.83;30.93;99714.50;2210394;89;25694;-85
2022/05/23 14:01:42;;;;;;;1.85;1.10;;;;;;;23.92;31.64;99716.32;2210431;89;25833;-85
2022/05/23 14:05:08;;;;;;;;;;;;;;;24.11;31.81;99715.56;2212531;89;25736;-81
2022/05/23 14:08:38;;;;;;;2.30;0.80;;;;;;;24.21;31.14;99711.56;2210327;88;25751;-81
2022/05/23 14:12:11;;;;;;;2.98;0.93;;;;;;;24.29;31.90;99712.09;2208757;88;25764;-81
2022/05/23 14:15:50;;;;;;;;;;;;;;;;;;;;;
2022/05/23 14:23:31;;;;;;;1.67;1.32;;;;;;;24.81;32.26;99700.48;1988323;99;25715;-79
2022/05/23 14:27:29;;;;;;;7.23;1.00;;;;;;;24.76;31.99;99701.14;2007544;98;26563;-80
2022/05/23 14:30:57;;;;;;;7.22;0.95;;;;;;;24.81;32.26;99699.15;2043402;95;25899;-79
2022/05/23 14:34:28;;;;;;;3.87;1.00;;;;;;;24.58;32.58;99694.86;2042585;96;25832;-80
2022/05/23 14:37:52;;;;;;;5.70;1.00;;;;;;;24.44;32.95;99698.61;2027916;96;25792;-80
2022/05/23 14:41:26;;;;;;;2.92;1.07;;;;;;;24.23;32.88;99693.70;2038581;95;25949;-80
2022/05/23 14:45:07;;;;;;;1.15;0.93;;;;;;;24.00;32.71;99694.25;2154373;91;25994;-77
2022/05/23 14:48:33;;;;;;;4.42;1.20;;;;;;;23.72;32.54;99691.86;2172070;89;25898;-79
2022/05/23 14:52:19;;;;;;;3.52;1.20;;;;;;;23.53;33.48;99690.41;2240811;86;25792;-75
2022/05/23 14:56:09;;;;;;;1.55;1.25;;;;;;;23.37;33.40;99686.63;2302624;85;26475;-79
2022/05/23 15:03:53;;;;;;;4.37;1.10;;;;;;;23.50;34.21;99689.66;2430649;80;25707;-76
2022/05/23 15:07:25;;;;;;;3.72;1.05;;;;;;;23.61;34.08;99684.77;2429145;80;25774;-85
2022/05/23 15:10:47;;;;;;;5.30;1.20;;;;;;;23.75;34.10;99673.11;2436832;80;25620;-85
2022/05/23 15:14:11;;;;;;;1.60;0.90;;;;;;;23.94;34.39;99673.67;2408671;80;25891;-82
2022/05/23 15:17:37;;;;;;;2.47;0.93;;;;;;;23.99;33.69;99671.67;2410493;80;25677;-75
2022/05/23 15:21:11;;;;;;;3.35;0.93;;;;;;;24.06;34.21;99667.80;2438768;80;25581;-86
2022/05/23 15:24:29;;;;;;;3.30;0.95;;;;;;;24.10;33.21;99672.53;2353569;83;25789;-86
2022/05/23 15:27:58;;;;;;;4.92;1.00;;;;;;;23.86;32.45;99667.36;2343679;83;25634;-84
2022/05/23 15:31:26;;;;;;;3.17;0.82;;;;;;;23.60;32.86;99657.77;2339984;84;26300;-86
2022/05/23 15:34:49;;;;;;;0.90;0.70;;;;;;;23.58;33.30;99657.81;2338995;84;25656;-75
2022/05/23 15:38:12;;;;;;;4.42;1.05;;;;;;;23.63;33.30;99660.77;2337936;84;25786;-85
2022/05/23 15:41:46;;;;;;;2.52;1.17;;;;;;;23.76;33.22;99662.88;2340632;84;26410;-89
2022/05/23 15:45:27;;;;;;;3.15;0.90;;;;;;;23.80;32.99;99656.97;2344604;84;25738;-74
2022/05/23 15:49:04;;;;;;;;;;;;;;;;;;;;;
2022/05/23 15:52:20;;;;;;;1.85;0.80;;;;;;;23.49;31.88;99658.64;2319636;84;25712;-80
2022/05/23 16:03:20;;;;;;;5.60;0.82;;;;;;;22.51;32.78;99654.03;2076783;94;25848;-89
2022/05/23 16:06:49;;;;;;;1.98;0.80;;;;;;;22.29;33.14;99654.41;2077759;94;26402;-91
2022/05/23 16:10:18;;;;;;;4.47;0.90;;;;;;;22.33;33.77;99652.03;2067715;94;25817;-83
2022/05/23 16:13:44;;;;;;;1.10;0.80;;;;;;;22.46;33.85;99653.79;2083988;93;25838;-90
2022/05/23 16:17:12;;;;;;;4.47;0.70;;;;;;;22.53;33.79;99654.83;2088750;94;25889;-90
2022/05/23 16:20:52;;;;;;;2.77;0.70;;;;;;;22.44;33.38;99655.62;2125351;90;26015;-86
2022/05/23 16:24:21;;;;;;;4.35;0.80;;;;;;;22.37;34.51;99654.98;2161829;89;26017;-83
2022/05/23 16:27:47;;;;;;;2.00;0.98;;;;;;;22.48;33.60;99646.64;2150085;91;25686;-81
2022/05/23 16:31:16;;;;;;;0.95;0.68;;;;;;;22.35;34.35;99651.06;2211092;89;25764;-88
2022/05/23 16:38:31;;;;;;;2.25;0.90;;;;;;;22.52;34.82;99642.94;2255330;87;26470;-87
2022/05/23 16:42:04;;;;;;;0.70;0.70;;;;;;;22.59;34.21;99641.32;2234615;87;25880;-86
2022/05/23 16:45:37;;;;;;;2.77;0.80;;;;;;;22.52;33.44;99638.48;2220991;87;26062;-80
2022/05/23 16:49:09;;;;;;;1.45;0.93;;;;;;;22.23;33.37;99640.02;2255471;87;25713;-80
2022/05/23 16:52:34;;;;;;;5.85;1.15;;;;;;;22.21;34.13;99646.72;2256505;86;25767;-77
2022/05/23 16:55:56;;;;;;;2.35;0.90;;;;;;;22.21;33.89;99645.83;2264293;87;25799;-86
2022/05/23 16:59:35;;;;;;;;;;;;;;;;;;;;;
2022/05/23 17:03:04;;;;;;;4.53;0.80;;;;;;;21.85;33.83;99643.53;2466491;80;25788;-81
2022/05/23 17:06:34;;;;;;;3.62;0.98;;;;;;;21.84;34.69;99641.80;2467249;80;25739;-86
2022/05/23 17:10:11;;;;;;;4.85;0.80;;;;;;;22.01;34.46;99630.60;2494755;78;25709;-85
2022/05/23 17:13:42;;;;;;;0.90;0.75;;;;;;;21.69;33.80;99640.52;2465561;78;25183;-81
2022/05/23 17:17:37;;;;;;;2.27;0.70;;;;;;;21.52;34.09;99634.45;2434009;80;25648;-82
2022/05/23 17:21:17;;;;;;;2.65;1.07;;;;;;;21.52;34.55;99640.22;2421242;81;26022;-88
2022/05/23 17:24:52;;;;;;;3.75;0.80;;;;;;;21.57;34.25;99635.19;2421683;81;25939;-85
2022/05/23 17:28:24;;;;;;;3.10;1.00;;;;;;;21.55;34.16;99628.19;2421410;81;25685;-90
2022/05/23 17:31:53;;;;;;;3.17;0.60;;;;;;;21.54;34.86;99629.13;2421656;81;25620;-88
2022/05/23 17:35:21;;;;;;;2.45;0.90;;;;;;;21.65;34.72;99625.17;2422640;81;25730;-87
2022/05/23 17:38:47;;;;;;;6.15;1.32;;;;;;;21.70;34.70;99627.69;2386288;82;25756;-85
2022/05/23 17:42:21;;;;;;;1.25;0.90;;;;;;;21.63;34.27;99630.11;2383700;82;25863;-83
2022/05/23 17:46:06;;;;;;;3.55;1.12;;;;;;;21.51;34.47;99628.75;2378445;83;25814;-84
2022/05/23 17:49:41;;;;;;;2.87;0.98;;;;;;;21.44;34.54;99631.20;2379096;83;25760;-81
2022/05/23 17:53:14;;;;;;;7.08;1.32;;;;;;;21.16;34.42;99626.77;2374256;83;25885;-88
2022/05/23 17:56:36;;;;;;;4.83;1.30;;;;;;;21.03;34.66;99623.23;2378026;82;25700;-81
2022/05/23 17:59:59;;;;;;;7.62;1.17;;;;;;;20.86;34.63;99623.29;2350523;83;25758;-76
2022/05/23 18:03:30;;;;;;;10.38;1.17;;;;;;;20.67;34.87;99621.64;2343807;83;25685;-88
2022/05/23 18:06:54;;;;;;;4.30;1.10;;;;;;;20.55;35.25;99623.31;2343169;83;26485;-90
2022/05/23 18:10:15;;;;;;;3.02;1.20;;;;;;;20.36;35.65;99624.29;2385461;82;25840;-85
2022/05/23 18:21:25;;;;;;;3.17;1.25;;;;;;;20.07;36.82;99622.91;2310983;85;25723;-84
2022/05/23 18:24:53;;;;;;;7.03;1.52;;;;;;;19.89;37.07;99625.60;2309904;84;25721;-78
2022/05/23 18:28:21;;;;;;;3.87;1.27;;;;;;;19.79;37.37;99621.87;2302101;84;25753;-88
2022/05/23 18:32:03;;;;;;;;;;;;;;;;;;;;;
2022/05/23 18:35:34;;;;;;;5.83;1.50;;;;;;;19.72;37.93;99618.11;2378073;82;25809;-75
2022/05/23 18:39:07;;;;;;;2.35;1.67;;;;;;;19.64;38.26;99624.03;2394659;82;25637;-79
2022/05/23 18:42:46;;;;;;;3.58;1.40;;;;;;;19.58;38.79;99622.40;2394476;82;25628;-90
2022/05/23 18:46:12;;;;;;;2.80;2.05;;;;;;;19.49;38.83;99620.84;2395183;81;25648;-85
2022/05/23 18:49:45;;;;;;;5.35;1.80;;;;;;;19.34;39.10;99626.52;2394600;81;25880;-85
2022/05/23 18:53:20;;;;;;;2.35;1.45;;;;;;;19.22;39.44;99632.95;2394158;82;25641;-81
2022/05/23 18:56:45;;;;;;;6.25;1.80;;;;;;;19.14;39.69;99636.24;2395197;82;26267;-77
2022/05/23 19:00:12;;;;;;;5.40;1.98;;;;;;;19.06;39.99;99635.53;2389482;82;25696;-81
2022/05/23 19:03:51;;;;;;;8.53;1.60;;;;;;;18.98;40.20;99632.21;2393906;82;25743;-76
2022/05/23 19:07:30;;;;;;;9.85;2.25;;;;;;;18.95;40.14;99633.14;2366955;82;25657;-74
2022/05/23 19:10:57;;;;;;;9.13;2.20;;;;;;;19.11;40.48;99629.25;2390011;81;25711;-75
2022/05/23 19:14:47;;;;;;;6.65;1.77;;;;;;;19.26;40.42;99622.72;2394045;82;25723;-74
2022/05/23 19:18:38;;;;;;;3.22;1.55;;;;;;;19.40;40.30;99632.09;2336102;83;25749;-73
2022/05/23 19:22:58;;;;;;;8.13;1.82;;;;;;;19.46;40.28;99627.98;2186705;88;25819;-75
2022/05/23 19:30:18;;;;;;;2.98;1.85;;;;;;;19.49;40.17;99630.09;2065703;94;26144;-74
2022/05/23 19:38:49;;;;;;;4.35;2.10;;;;;;;19.50;40.09;99620.38;2001155;98;25938;-76
2022/05/23 19:42:52;;;;;;;3.10;1.90;;;;;;;19.56;40.00;99618.45;2010567;98;25757;-75
2022/05/23 19:46:27;;;;;;;3.85;1.92;;;;;;;19.57;39.99;99632.54;2002693;97;25722;-76
2022/05/23 19:50:11;;;;;;;6.00;1.98;;;;;;;19.54;40.10;99628.22;1952830;99;25781;-75
2022/05/23 19:53:58;;;;;;;2.98;1.85;;;;;;;19.49;40.24;99631.42;1905281;101;25943;-79
2022/05/23 20:01:19;;;;;;;6.85;2.25;;;;;;;19.39;40.34;99635.65;1855447;104;25964;-75
2022/05/23 20:09:05;;;;;;;;;;;;;;;;;;;;;
2022/05/23 20:12:37;;;;;;;;;;;;;;;;;;;;;
2022/05/23 20:16:08;;;;;;;5.95;2.47;;;;;;;19.27;40.68;99648.27;1826040;108;25842;-78
2022/05/23 20:19:44;;;;;;;5.17;1.90;;;;;;;19.25;40.89;99643.45;1831276;107;26067;-76
2022/05/23 20:23:23;;;;;;;4.58;2.20;;;;;;;19.18;41.04;99643.64;1846281;106;25894;-75
2022/05/23 20:27:08;;;;;;;10.48;2.83;;;;;;;19.17;41.06;99641.46;1872672;102;26048;-75